createdAt,value
2023-04-18T00:00:42.287Z,3.13
2023-04-18T00:03:09.684Z,3.08
2023-04-18T00:05:36.796Z,2.87
2023-04-18T00:08:03.873Z,3.33
2023-04-18T00:10:30.497Z,2.80
2023-04-18T00:12:58.345Z,3.28
2023-04-18T00:15:25.866Z,3.20
2023-04-18T00:17:56.503Z,3.22
2023-04-18T00:20:26.804Z,3.25
2023-04-18T00:22:54.996Z,2.67
2023-04-18T00:25:21.635Z,3.20
2023-04-18T00:27:48.164Z,3.30
2023-04-18T00:30:15.474Z,3.60
2023-04-18T00:32:42.086Z,3.13
2023-04-18T00:35:08.984Z,3.30
2023-04-18T00:37:35.660Z,3.20
2023-04-18T00:40:02.226Z,3.35
2023-04-18T00:42:29.457Z,3.28
2023-04-18T00:44:56.043Z,3.42
2023-04-18T00:47:22.694Z,3.15
2023-04-18T00:49:49.685Z,3.15
2023-04-18T00:52:16.852Z,3.08
2023-04-18T00:54:44.803Z,2.40
2023-04-18T00:57:13.696Z,3.25
2023-04-18T00:59:40.848Z,3.13
2023-04-18T01:02:07.488Z,3.55
2023-04-18T01:04:34.132Z,3.70
2023-04-18T01:07:03.604Z,3.63
2023-04-18T01:09:30.316Z,3.67
2023-04-18T01:11:57.088Z,3.50
2023-04-18T01:14:24.055Z,3.20
2023-04-18T01:16:50.678Z,3.83
2023-04-18T01:19:17.494Z,3.55
2023-04-18T01:21:44.375Z,3.55
2023-04-18T01:24:15.623Z,3.63
2023-04-18T01:26:44.872Z,4.20
2023-04-18T01:29:11.833Z,3.90
2023-04-18T01:31:39.254Z,3.67
2023-04-18T01:34:06.396Z,4.28
2023-04-18T01:36:33.548Z,4.03
2023-04-18T01:39:00.392Z,4.57
2023-04-18T01:41:29.129Z,3.97
2023-04-18T01:43:55.729Z,4.18
2023-04-18T01:46:22.359Z,4.32
2023-04-18T01:48:48.970Z,4.10
2023-04-18T01:51:15.836Z,4.70
2023-04-18T01:53:42.474Z,4.80
2023-04-18T01:56:10.222Z,4.28
2023-04-18T01:58:37.324Z,3.97
2023-04-18T02:01:04.214Z,3.95
2023-04-18T02:03:31.178Z,3.70
2023-04-18T02:05:57.899Z,4.47
2023-04-18T02:08:24.499Z,4.28
2023-04-18T02:10:51.078Z,4.25
2023-04-18T02:13:17.929Z,4.53
2023-04-18T02:15:45.955Z,4.47
2023-04-18T02:18:12.583Z,4.47
2023-04-18T02:20:39.257Z,4.80
2023-04-18T02:23:05.904Z,4.20
2023-04-18T02:25:32.583Z,4.22
2023-04-18T02:27:59.155Z,4.32
2023-04-18T02:30:25.962Z,4.55
2023-04-18T02:32:58.860Z,4.93
2023-04-18T02:35:27.021Z,4.43
2023-04-18T02:37:53.722Z,4.03
2023-04-18T02:40:20.651Z,4.10
2023-04-18T02:42:47.232Z,4.18
2023-04-18T02:45:14.045Z,4.20
2023-04-18T02:47:53.762Z,4.47
2023-04-18T02:50:21.715Z,4.30
2023-04-18T02:52:48.324Z,4.63
2023-04-18T02:55:15.185Z,4.28
2023-04-18T02:57:41.736Z,3.83
2023-04-18T03:00:08.984Z,4.30
2023-04-18T03:02:35.722Z,4.80
2023-04-18T03:05:02.435Z,3.75
2023-04-18T03:07:29.080Z,4.07
2023-04-18T03:09:55.641Z,5.13
2023-04-18T03:12:22.349Z,4.05
2023-04-18T03:14:48.982Z,4.57
2023-04-18T03:17:15.618Z,4.63
2023-04-18T03:19:42.264Z,4.30
2023-04-18T03:22:09.234Z,4.50
2023-04-18T03:24:35.791Z,4.20
2023-04-18T03:27:02.393Z,4.38
2023-04-18T03:29:28.959Z,4.40
2023-04-18T03:31:55.526Z,4.20
2023-04-18T03:34:22.137Z,4.50
2023-04-18T03:36:48.782Z,4.30
2023-04-18T03:39:15.421Z,3.83
2023-04-18T03:41:41.983Z,5.57
2023-04-18T03:44:09.092Z,4.93
2023-04-18T03:46:35.736Z,5.38
2023-04-18T03:49:02.358Z,5.63
2023-04-18T03:51:33.402Z,5.90
2023-04-18T03:53:59.966Z,5.43
2023-04-18T03:56:27.012Z,5.45
2023-04-18T03:58:53.601Z,5.10
2023-04-18T04:01:20.335Z,5.70
2023-04-18T04:03:47.017Z,5.25
2023-04-18T04:06:13.658Z,5.50
2023-04-18T04:08:40.362Z,4.93
2023-04-18T04:11:07.001Z,5.47
2023-04-18T04:13:33.585Z,5.68
2023-04-18T04:16:00.330Z,6.13
2023-04-18T04:18:31.108Z,5.80
2023-04-18T04:20:58.984Z,6.57
2023-04-18T04:23:26.836Z,5.30
2023-04-18T04:25:54.052Z,6.10
2023-04-18T04:28:22.766Z,6.00
2023-04-18T04:30:53.136Z,6.85
2023-04-18T04:33:20.466Z,6.20
2023-04-18T04:35:47.292Z,7.63
2023-04-18T04:38:17.276Z,6.13
2023-04-18T04:40:43.841Z,7.47
2023-04-18T04:43:15.650Z,8.25
2023-04-18T04:45:47.713Z,7.57
2023-04-18T04:48:14.413Z,8.63
2023-04-18T04:50:41.854Z,8.20
2023-04-18T04:53:09.066Z,6.97
2023-04-18T04:55:36.048Z,7.55
2023-04-18T04:58:02.608Z,7.47
2023-04-18T05:00:29.263Z,6.65
2023-04-18T05:02:58.002Z,7.88
2023-04-18T05:05:24.652Z,7.35
2023-04-18T05:07:51.278Z,7.38
2023-04-18T05:10:17.867Z,6.45
2023-04-18T05:12:44.602Z,7.28
2023-04-18T05:15:12.058Z,7.35
2023-04-18T05:17:38.799Z,6.85
2023-04-18T05:20:06.225Z,7.25
2023-04-18T05:22:32.811Z,6.30
2023-04-18T05:24:59.392Z,7.03
2023-04-18T05:27:26.287Z,7.13
2023-04-18T05:29:52.961Z,6.70
2023-04-18T05:32:19.795Z,6.63
2023-04-18T05:34:46.957Z,6.47
2023-04-18T05:37:13.668Z,6.72
2023-04-18T05:39:40.767Z,8.23
2023-04-18T05:42:07.641Z,7.35
2023-04-18T05:44:34.237Z,8.65
2023-04-18T05:47:01.056Z,7.80
2023-04-18T05:49:27.688Z,9.10
2023-04-18T05:51:54.294Z,8.15
2023-04-18T05:54:25.140Z,7.72
2023-04-18T05:56:51.996Z,8.23
2023-04-18T05:59:18.574Z,7.90
2023-04-18T06:01:45.150Z,8.10
2023-04-18T06:04:12.083Z,8.85
2023-04-18T06:06:38.837Z,8.40
2023-04-18T06:09:05.436Z,9.23
2023-04-18T06:11:35.677Z,8.15
2023-04-18T06:14:03.020Z,9.15
2023-04-18T06:16:29.705Z,9.23
2023-04-18T06:19:00.368Z,9.68
2023-04-18T06:21:28.113Z,9.05
2023-04-18T06:23:54.775Z,8.05
2023-04-18T06:26:21.580Z,8.77
2023-04-18T06:28:48.243Z,7.85
2023-04-18T06:31:14.838Z,8.00
2023-04-18T06:33:41.419Z,7.93
2023-04-18T06:36:08.954Z,9.23
2023-04-18T06:38:35.756Z,9.10
2023-04-18T06:41:02.317Z,9.68
2023-04-18T06:43:28.972Z,8.68
2023-04-18T06:45:56.711Z,9.30
2023-04-18T06:48:23.460Z,7.47
2023-04-18T06:50:50.063Z,8.40
2023-04-18T06:53:16.619Z,7.78
2023-04-18T06:55:43.206Z,8.40
2023-04-18T06:58:10.179Z,8.23
2023-04-18T07:00:36.900Z,8.52
2023-04-18T07:03:11.460Z,7.57
2023-04-18T07:05:38.665Z,7.70
2023-04-18T07:08:05.407Z,8.95
2023-04-18T07:10:32.181Z,8.95
2023-04-18T07:12:58.736Z,8.10
2023-04-18T07:15:25.432Z,8.77
2023-04-18T07:17:53.147Z,8.70
2023-04-18T07:20:19.812Z,9.10
2023-04-18T07:22:48.072Z,8.90
2023-04-18T07:25:14.786Z,9.13
2023-04-18T07:27:41.547Z,10.10
2023-04-18T07:30:08.835Z,8.85
2023-04-18T07:32:35.507Z,9.15
2023-04-18T07:35:03.393Z,8.77
2023-04-18T07:37:30.036Z,9.32
2023-04-18T07:39:56.602Z,10.57
2023-04-18T07:42:23.327Z,8.90
2023-04-18T07:44:50.191Z,9.30
2023-04-18T07:47:17.217Z,9.85
2023-04-18T07:49:43.795Z,9.68
2023-04-18T07:52:10.758Z,10.07
2023-04-18T07:54:37.414Z,9.40
2023-04-18T07:57:04.100Z,10.38
2023-04-18T07:59:32.275Z,10.90
2023-04-18T08:01:59.007Z,10.60
2023-04-18T08:04:28.225Z,10.70
2023-04-18T08:06:56.512Z,8.27
2023-04-18T08:09:23.050Z,10.63
2023-04-18T08:11:49.602Z,9.32
2023-04-18T08:14:16.198Z,8.18
2023-04-18T08:16:42.888Z,9.18
2023-04-18T08:19:09.511Z,10.38
2023-04-18T08:21:36.687Z,8.23
2023-04-18T08:24:03.388Z,8.70
2023-04-18T08:26:29.957Z,8.95
2023-04-18T08:28:56.648Z,8.93
2023-04-18T08:31:23.382Z,9.35
2023-04-18T08:33:50.193Z,9.05
2023-04-18T08:36:16.830Z,9.10
2023-04-18T08:38:43.429Z,9.70
2023-04-18T08:41:09.999Z,8.52
2023-04-18T08:43:37.874Z,9.32
2023-04-18T08:46:04.734Z,8.50
2023-04-18T08:48:31.471Z,8.65
2023-04-18T08:50:59.389Z,9.00
2023-04-18T08:53:27.101Z,8.57
2023-04-18T08:55:58.011Z,8.35
2023-04-18T08:58:27.458Z,8.20
2023-04-18T09:00:54.990Z,7.60
2023-04-18T09:03:39.998Z,8.57
2023-04-18T09:06:18.940Z,8.98
2023-04-18T09:08:57.457Z,7.85
2023-04-18T09:11:32.466Z,7.30
2023-04-18T09:13:59.447Z,7.88
2023-04-18T09:16:27.834Z,7.15
2023-04-18T09:19:14.897Z,7.70
2023-04-18T09:21:48.741Z,7.78
2023-04-18T09:24:27.218Z,7.93
2023-04-18T09:29:23.982Z,8.38
2023-04-18T09:31:54.653Z,7.05
2023-04-18T09:34:25.125Z,8.43
2023-04-18T09:37:18.151Z,8.27
2023-04-18T09:39:45.039Z,8.27
2023-04-18T09:42:12.531Z,9.00
2023-04-18T09:44:58.751Z,8.05
2023-04-18T09:47:27.163Z,7.15
2023-04-18T09:49:53.903Z,7.20
2023-04-18T09:52:21.261Z,7.75
2023-04-18T09:54:49.317Z,7.70
2023-04-18T09:57:16.930Z,8.07
2023-04-18T09:59:51.654Z,7.17
2023-04-18T10:02:23.036Z,8.30
2023-04-18T10:04:51.126Z,6.80
2023-04-18T10:07:18.029Z,7.40
2023-04-18T10:09:48.028Z,7.90
2023-04-18T10:12:14.749Z,7.82
2023-04-18T10:14:45.503Z,8.73
2023-04-18T10:17:14.591Z,7.75
2023-04-18T10:19:42.096Z,7.40
2023-04-18T10:22:08.731Z,7.28
2023-04-18T10:24:56.069Z,7.80
2023-04-18T10:27:47.421Z,8.63
2023-04-18T10:30:17.237Z,8.05
2023-04-18T10:32:45.947Z,7.75
2023-04-18T10:35:12.687Z,8.57
2023-04-18T10:37:51.789Z,8.55
2023-04-18T10:40:33.065Z,7.60
2023-04-18T10:42:59.733Z,7.55
2023-04-18T10:45:28.910Z,8.40
2023-04-18T10:48:30.181Z,7.50
2023-04-18T10:51:17.389Z,7.75
2023-04-18T10:53:51.818Z,6.50
2023-04-18T10:56:18.423Z,7.45
2023-04-18T10:58:50.238Z,7.72
2023-04-18T11:01:24.463Z,6.20
2023-04-18T11:03:51.466Z,7.45
2023-04-18T11:06:18.322Z,6.93
2023-04-18T11:08:45.337Z,7.07
2023-04-18T11:11:13.471Z,6.75
2023-04-18T11:13:57.472Z,6.00
2023-04-18T11:16:32.766Z,5.90
2023-04-18T11:18:59.579Z,6.85
2023-04-18T11:21:30.620Z,6.20
2023-04-18T11:23:58.274Z,5.80
2023-04-18T11:26:29.054Z,6.75
2023-04-18T11:28:59.137Z,5.78
2023-04-18T11:31:25.917Z,5.88
2023-04-18T11:33:52.591Z,6.03
2023-04-18T11:36:19.289Z,6.18
2023-04-18T11:38:46.158Z,6.47
2023-04-18T11:41:14.549Z,6.38
2023-04-18T11:43:45.649Z,5.72
2023-04-18T11:46:13.464Z,7.10
2023-04-18T11:48:43.466Z,5.68
2023-04-18T11:51:35.982Z,6.30
2023-04-18T11:54:02.729Z,6.03
2023-04-18T11:56:29.320Z,6.35
2023-04-18T11:58:56.372Z,6.72
2023-04-18T12:01:25.711Z,6.25
2023-04-18T12:04:08.146Z,6.72
2023-04-18T12:06:47.160Z,6.25
2023-04-18T12:09:15.321Z,5.88
2023-04-18T12:11:42.517Z,5.57
2023-04-18T12:14:21.921Z,6.18
2023-04-18T12:16:52.066Z,5.88
2023-04-18T12:19:20.853Z,5.72
2023-04-18T12:22:01.246Z,5.25
2023-04-18T12:24:32.162Z,5.45
2023-04-18T12:26:59.516Z,5.47
2023-04-18T12:29:27.491Z,5.10
2023-04-18T12:31:54.379Z,5.28
2023-04-18T12:34:21.133Z,4.10
2023-04-18T12:36:47.753Z,4.28
2023-04-18T12:39:14.349Z,4.68
2023-04-18T12:41:40.993Z,4.72
2023-04-18T12:44:07.661Z,5.00
2023-04-18T12:46:34.229Z,4.00
2023-04-18T12:49:00.972Z,4.68
2023-04-18T12:51:27.974Z,4.00
2023-04-18T12:53:54.614Z,4.53
2023-04-18T12:56:21.615Z,4.35
2023-04-18T12:58:48.208Z,4.10
2023-04-18T13:01:15.267Z,4.28
2023-04-18T13:03:42.138Z,4.07
2023-04-18T13:06:09.094Z,4.20
2023-04-18T13:08:36.083Z,3.95
2023-04-18T13:11:02.668Z,3.80
2023-04-18T13:13:29.284Z,3.30
2023-04-18T13:15:56.261Z,3.63
2023-04-18T13:18:22.930Z,4.07
2023-04-18T13:20:49.775Z,3.88
2023-04-18T13:23:16.369Z,3.88
2023-04-18T13:25:42.917Z,4.10
2023-04-18T13:28:09.452Z,3.83
2023-04-18T13:30:36.060Z,3.70
2023-04-18T13:33:02.762Z,4.00
2023-04-18T13:35:29.421Z,3.22
2023-04-18T13:37:56.118Z,3.92
2023-04-18T13:40:22.884Z,4.13
2023-04-18T13:42:49.530Z,3.38
2023-04-18T13:45:16.123Z,3.58
2023-04-18T13:47:42.775Z,3.53
2023-04-18T13:50:09.794Z,3.45
2023-04-18T13:52:36.526Z,3.05
2023-04-18T13:55:03.904Z,3.50
2023-04-18T13:57:32.301Z,3.47
2023-04-18T14:02:25.691Z,3.38
2023-04-18T14:04:54.264Z,3.97
2023-04-18T14:07:20.873Z,3.72
2023-04-18T14:09:48.236Z,3.70
2023-04-18T14:12:14.863Z,5.05
2023-04-18T14:14:41.921Z,4.35
2023-04-18T14:17:08.551Z,4.80
2023-04-18T14:19:35.185Z,3.80
2023-04-18T14:22:01.729Z,4.55
2023-04-18T14:24:28.337Z,4.00
2023-04-18T14:26:54.906Z,3.75
2023-04-18T14:29:21.484Z,4.20
2023-04-18T14:31:48.197Z,4.15
2023-04-18T14:34:15.072Z,4.30
2023-04-18T14:36:41.684Z,4.60
2023-04-18T14:39:08.439Z,3.72
2023-04-18T14:41:35.006Z,3.88
2023-04-18T14:44:02.283Z,3.42
2023-04-18T14:46:29.238Z,3.57
2023-04-18T14:48:55.909Z,3.65
2023-04-18T14:51:23.615Z,3.35
2023-04-18T14:53:50.257Z,3.60
2023-04-18T14:56:20.924Z,3.75
2023-04-18T14:58:47.620Z,4.03
2023-04-18T15:01:14.217Z,4.07
2023-04-18T15:03:41.109Z,3.17
2023-04-18T15:06:08.030Z,3.58
2023-04-18T15:08:34.576Z,3.65
2023-04-18T15:11:01.420Z,3.70
2023-04-18T15:13:28.048Z,3.45
2023-04-18T15:15:56.257Z,3.97
2023-04-18T15:18:23.060Z,3.72
2023-04-18T15:20:50.021Z,3.90
2023-04-18T15:23:16.729Z,4.28
2023-04-18T15:25:44.547Z,4.05
2023-04-18T15:28:14.637Z,3.92
2023-04-18T15:30:41.283Z,3.60
2023-04-18T15:33:08.285Z,3.53
2023-04-18T15:35:35.025Z,4.47
2023-04-18T15:38:01.609Z,4.00
2023-04-18T15:40:28.186Z,4.38
2023-04-18T15:42:56.060Z,4.78
2023-04-18T15:45:22.713Z,4.55
2023-04-18T15:47:49.374Z,4.47
2023-04-18T15:50:16.509Z,4.20
2023-04-18T15:52:43.433Z,4.93
2023-04-18T15:55:13.527Z,4.22
2023-04-18T15:57:41.675Z,4.55
2023-04-18T16:00:15.759Z,4.50
2023-04-18T16:02:43.855Z,4.45
2023-04-18T16:05:12.332Z,4.82
2023-04-18T16:10:10.246Z,5.05
2023-04-18T16:12:37.980Z,4.05
2023-04-18T16:15:10.534Z,4.05
2023-04-18T16:17:37.750Z,4.22
2023-04-18T16:20:06.297Z,4.28
2023-04-18T16:22:35.034Z,3.88
2023-04-18T16:27:28.530Z,4.10
2023-04-18T16:29:55.219Z,4.72
2023-04-18T16:32:21.923Z,4.20
2023-04-18T16:34:48.696Z,4.30
2023-04-18T16:37:15.723Z,3.90
2023-04-18T16:39:42.337Z,4.28
2023-04-18T16:42:08.911Z,4.40
2023-04-18T16:44:35.470Z,3.60
2023-04-18T16:47:02.149Z,3.53
2023-04-18T16:49:28.799Z,3.60
2023-04-18T16:51:55.409Z,3.45
2023-04-18T16:54:21.965Z,3.85
2023-04-18T16:56:48.747Z,4.10
2023-04-18T16:59:15.384Z,3.63
2023-04-18T17:01:42.155Z,3.40
2023-04-18T17:04:08.856Z,4.22
2023-04-18T17:06:35.547Z,4.80
2023-04-18T17:09:02.116Z,4.68
2023-04-18T17:11:28.683Z,4.85
2023-04-18T17:13:55.307Z,4.53
2023-04-18T17:16:21.963Z,4.38
2023-04-18T17:18:48.673Z,4.72
2023-04-18T17:21:15.367Z,4.50
2023-04-18T17:23:42.634Z,4.70
2023-04-18T17:26:09.895Z,4.78
2023-04-18T17:28:36.534Z,4.50
2023-04-18T17:31:03.755Z,5.45
2023-04-18T17:33:31.026Z,4.95
2023-04-18T17:35:58.083Z,4.50
2023-04-18T17:38:24.730Z,4.78
2023-04-18T17:41:01.237Z,4.93
2023-04-18T17:43:28.138Z,5.25
2023-04-18T17:45:56.034Z,5.00
2023-04-18T17:48:22.649Z,4.90
2023-04-18T17:50:49.238Z,5.22
2023-04-18T17:53:17.637Z,4.50
2023-04-18T17:55:45.189Z,5.07
2023-04-18T17:58:11.864Z,5.47
2023-04-18T18:00:38.478Z,5.15
2023-04-18T18:03:05.312Z,5.20
2023-04-18T18:05:32.108Z,5.10
2023-04-18T18:07:59.941Z,5.05
2023-04-18T18:12:53.614Z,5.22
2023-04-18T18:15:20.279Z,5.15
2023-04-18T18:17:49.726Z,5.40
2023-04-18T18:20:16.738Z,5.25
2023-04-18T18:22:43.631Z,5.43
2023-04-18T18:25:10.695Z,5.78
2023-04-18T18:27:37.343Z,4.90
2023-04-18T18:30:04.445Z,5.80
2023-04-18T18:32:31.174Z,5.65
2023-04-18T18:34:57.822Z,6.53
2023-04-18T18:37:26.009Z,6.05
2023-04-18T18:39:54.465Z,5.47
2023-04-18T18:44:47.449Z,5.90
2023-04-18T18:47:14.005Z,5.80
2023-04-18T18:49:40.853Z,4.97
2023-04-18T18:52:07.423Z,5.82
2023-04-18T18:54:34.338Z,5.70
2023-04-18T18:57:03.700Z,5.45
2023-04-18T18:59:30.564Z,6.78
2023-04-18T19:01:57.243Z,7.03
2023-04-18T19:04:24.307Z,6.47
2023-04-18T19:06:51.255Z,6.72
2023-04-18T19:09:17.883Z,6.30
2023-04-18T19:11:44.436Z,6.72
2023-04-18T19:14:11.035Z,6.45
2023-04-18T19:16:37.810Z,6.38
2023-04-18T19:19:04.552Z,5.97
2023-04-18T19:21:31.496Z,6.25
2023-04-18T19:23:58.106Z,6.28
2023-04-18T19:26:24.693Z,6.03
2023-04-18T19:28:51.314Z,6.68
2023-04-18T19:31:17.923Z,5.80
2023-04-18T19:33:44.502Z,6.15
2023-04-18T19:36:11.168Z,5.95
2023-04-18T19:38:37.732Z,6.88
2023-04-18T19:41:04.229Z,6.70
2023-04-18T19:43:30.778Z,6.93
2023-04-18T19:45:57.707Z,6.72
2023-04-18T19:48:24.289Z,7.15
2023-04-18T19:50:51.174Z,6.35
2023-04-18T19:53:19.010Z,7.10
2023-04-18T19:55:46.134Z,6.75
2023-04-18T19:58:33.110Z,7.28
2023-04-18T20:00:59.735Z,6.60
2023-04-18T20:03:26.518Z,6.53
2023-04-18T20:05:53.267Z,6.50
2023-04-18T20:08:19.995Z,6.65
2023-04-18T20:10:46.568Z,7.22
2023-04-18T20:13:13.128Z,6.60
2023-04-18T20:15:40.413Z,7.10
2023-04-18T20:18:07.147Z,7.68
2023-04-18T20:20:33.808Z,7.85
2023-04-18T20:23:00.418Z,6.93
2023-04-18T20:25:27.014Z,7.22
2023-04-18T20:27:53.576Z,7.90
2023-04-18T20:30:21.656Z,7.25
2023-04-18T20:32:48.328Z,6.90
2023-04-18T20:35:15.085Z,6.65
2023-04-18T20:37:41.636Z,7.55
2023-04-18T20:40:08.971Z,7.05
2023-04-18T20:42:36.692Z,7.18
2023-04-18T20:45:03.895Z,7.25
2023-04-18T20:47:30.465Z,7.80
2023-04-18T20:49:57.007Z,6.65
2023-04-18T20:52:23.550Z,7.10
2023-04-18T20:54:50.305Z,7.18
2023-04-18T20:57:18.953Z,7.72
2023-04-18T20:59:45.775Z,8.77
2023-04-18T21:02:12.602Z,7.90
2023-04-18T21:04:39.331Z,6.78
2023-04-18T21:07:06.004Z,7.40
2023-04-18T21:09:36.757Z,7.15
2023-04-18T21:12:04.106Z,6.47
2023-04-18T21:14:30.733Z,6.38
2023-04-18T21:16:57.951Z,7.65
2023-04-18T21:19:24.819Z,7.45
2023-04-18T21:21:51.410Z,6.38
2023-04-18T21:24:18.069Z,6.60
2023-04-18T21:26:44.639Z,7.30
2023-04-18T21:29:11.300Z,6.13
2023-04-18T21:31:37.900Z,7.63
2023-04-18T21:34:05.477Z,6.60
2023-04-18T21:36:32.299Z,5.93
2023-04-18T21:39:00.977Z,6.28
2023-04-18T21:41:27.737Z,6.82
2023-04-18T21:43:54.408Z,6.38
2023-04-18T21:46:21.189Z,6.55
2023-04-18T21:48:48.298Z,6.10
2023-04-18T21:51:16.420Z,6.97
2023-04-18T21:53:43.138Z,6.05
2023-04-18T21:56:09.760Z,6.10
2023-04-18T21:58:36.331Z,5.70
2023-04-18T22:01:03.286Z,5.57
2023-04-18T22:03:31.590Z,5.80
2023-04-18T22:05:58.720Z,5.70
2023-04-18T22:08:28.324Z,5.72
2023-04-18T22:10:56.537Z,5.07
2023-04-18T22:13:23.309Z,5.38
2023-04-18T22:15:51.476Z,5.30
2023-04-18T22:18:19.062Z,5.25
2023-04-18T22:20:46.922Z,5.17
2023-04-18T22:23:13.951Z,5.05
2023-04-18T22:25:40.904Z,4.63
2023-04-18T22:28:07.661Z,5.15
2023-04-18T22:30:34.296Z,5.13
2023-04-18T22:33:00.947Z,5.00
2023-04-18T22:35:27.652Z,4.53
2023-04-18T22:37:55.585Z,4.75
2023-04-18T22:40:22.327Z,4.25
2023-04-18T22:42:49.051Z,4.45
2023-04-18T22:45:15.601Z,4.60
2023-04-18T22:47:42.267Z,4.85
2023-04-18T22:50:09.094Z,4.72
2023-04-18T22:52:35.957Z,4.35
2023-04-18T22:55:03.322Z,4.43
2023-04-18T22:57:30.348Z,4.68
2023-04-18T22:59:56.911Z,4.25
2023-04-18T23:02:23.700Z,4.07
2023-04-18T23:04:50.653Z,5.22
2023-04-18T23:07:17.336Z,4.60
2023-04-18T23:09:43.962Z,4.55
2023-04-18T23:12:10.525Z,3.92
2023-04-18T23:14:37.211Z,4.72
2023-04-18T23:17:03.912Z,3.90
2023-04-18T23:19:30.552Z,4.30
2023-04-18T23:21:57.156Z,4.03
2023-04-18T23:24:23.721Z,4.18
2023-04-18T23:26:50.327Z,4.00
2023-04-18T23:29:16.866Z,4.32
2023-04-18T23:31:43.689Z,4.10
2023-04-18T23:34:10.710Z,4.10
2023-04-18T23:36:37.422Z,3.97
2023-04-18T23:39:04.391Z,4.32
2023-04-18T23:41:30.999Z,4.00
2023-04-18T23:43:57.601Z,4.15
2023-04-18T23:46:24.240Z,4.10
2023-04-18T23:48:51.021Z,4.70
2023-04-18T23:51:17.902Z,3.97
2023-04-18T23:53:44.491Z,3.75
2023-04-18T23:56:11.027Z,3.75
2023-04-18T23:58:37.553Z,4.07
